createdAt,value
2022-10-12T00:01:14.555Z,64.80
2022-10-12T00:03:47.169Z,64.83
2022-10-12T00:06:22.029Z,64.84
2022-10-12T00:08:55.650Z,65.00
2022-10-12T00:11:30.695Z,65.06
2022-10-12T00:14:05.227Z,64.77
2022-10-12T00:16:38.186Z,65.31
2022-10-12T00:19:14.040Z,64.88
2022-10-12T00:21:46.966Z,64.93
2022-10-12T00:24:19.503Z,64.74
2022-10-12T00:26:53.112Z,64.78
2022-10-12T00:29:27.356Z,64.93
2022-10-12T00:32:00.405Z,64.87
2022-10-12T00:34:33.385Z,64.73
2022-10-12T00:37:06.147Z,64.61
2022-10-12T00:39:39.151Z,64.73
2022-10-12T00:42:12.381Z,64.63
2022-10-12T00:44:48.637Z,64.86
2022-10-12T00:47:26.965Z,64.82
2022-10-12T00:50:08.249Z,64.60
2022-10-12T00:52:45.614Z,64.66
2022-10-12T00:55:22.509Z,64.70
2022-10-12T00:57:56.488Z,64.90
2022-10-12T01:00:30.792Z,65.02
2022-10-12T01:03:04.577Z,64.86
2022-10-12T01:05:40.456Z,64.40
2022-10-12T01:08:13.527Z,64.81
2022-10-12T01:10:46.200Z,64.52
2022-10-12T01:13:19.659Z,64.97
2022-10-12T01:15:59.220Z,64.22
2022-10-12T01:18:40.905Z,64.57
2022-10-12T01:21:20.191Z,64.21
2022-10-12T01:24:26.361Z,64.41
2022-10-12T01:27:13.846Z,64.99
2022-10-12T01:30:12.755Z,64.31
2022-10-12T01:33:13.694Z,64.19
2022-10-12T01:35:56.953Z,64.75
2022-10-12T01:38:34.933Z,64.37
2022-10-12T01:41:14.714Z,64.58
2022-10-12T01:43:48.009Z,64.58
2022-10-12T01:46:45.261Z,64.38
2022-10-12T01:49:21.198Z,64.23
2022-10-12T01:52:14.707Z,64.21
2022-10-12T01:54:57.234Z,64.41
2022-10-12T01:57:36.262Z,64.79
2022-10-12T02:00:12.163Z,64.26
2022-10-12T02:02:55.341Z,64.40
2022-10-12T02:05:36.863Z,64.52
2022-10-12T02:08:19.032Z,64.23
2022-10-12T02:10:58.155Z,64.19
2022-10-12T02:13:36.965Z,64.36
2022-10-12T02:16:14.452Z,64.46
2022-10-12T02:18:54.397Z,64.28
2022-10-12T02:21:34.305Z,64.06
2022-10-12T02:24:11.311Z,63.98
2022-10-12T02:26:48.633Z,64.30
2022-10-12T02:29:26.075Z,64.46
2022-10-12T02:32:06.520Z,64.48
2022-10-12T02:34:47.030Z,64.83
2022-10-12T02:37:28.364Z,64.22
2022-10-12T02:40:09.254Z,64.26
2022-10-12T02:43:09.230Z,64.26
2022-10-12T02:45:45.206Z,64.14
2022-10-12T02:48:23.402Z,64.31
2022-10-12T02:50:59.688Z,64.14
2022-10-12T02:53:32.652Z,63.98
2022-10-12T02:56:08.408Z,64.18
2022-10-12T02:58:43.222Z,64.51
2022-10-12T03:01:17.430Z,64.36
2022-10-12T03:03:50.456Z,64.04
2022-10-12T03:06:25.060Z,64.24
2022-10-12T03:08:58.199Z,64.46
2022-10-12T03:11:31.029Z,64.17
2022-10-12T03:14:03.788Z,64.60
2022-10-12T03:16:37.372Z,64.42
2022-10-12T03:19:10.538Z,64.32
2022-10-12T03:21:44.789Z,64.35
2022-10-12T03:24:17.601Z,64.36
2022-10-12T03:26:50.482Z,64.25
2022-10-12T03:29:23.379Z,64.41
2022-10-12T03:31:56.092Z,64.33
2022-10-12T03:34:28.893Z,64.51
2022-10-12T03:37:03.364Z,64.65
2022-10-12T03:39:36.130Z,64.65
2022-10-12T03:42:08.938Z,64.10
2022-10-12T03:44:41.587Z,64.20
2022-10-12T03:47:14.339Z,64.36
2022-10-12T03:49:47.142Z,64.29
2022-10-12T03:52:21.274Z,64.20
2022-10-12T03:54:53.909Z,63.84
2022-10-12T03:57:26.904Z,64.32
2022-10-12T03:59:59.529Z,64.26
2022-10-12T04:02:32.308Z,64.28
2022-10-12T04:05:05.685Z,64.42
2022-10-12T04:07:40.397Z,64.24
2022-10-12T04:10:13.416Z,64.45
2022-10-12T04:12:46.489Z,64.46
2022-10-12T04:15:19.133Z,64.80
2022-10-12T04:17:51.943Z,64.66
2022-10-12T04:20:24.693Z,64.28
2022-10-12T04:22:59.325Z,64.37
2022-10-12T04:25:32.120Z,64.49
2022-10-12T04:28:04.890Z,64.37
2022-10-12T04:30:37.814Z,64.64
2022-10-12T04:33:10.619Z,63.79
2022-10-12T04:35:43.708Z,64.53
2022-10-12T04:38:17.786Z,64.37
2022-10-12T04:40:51.190Z,65.16
2022-10-12T04:43:24.041Z,64.50
2022-10-12T04:45:57.549Z,64.40
2022-10-12T04:48:30.306Z,64.75
2022-10-12T04:51:03.096Z,64.98
2022-10-12T04:53:37.252Z,64.50
2022-10-12T04:56:10.130Z,64.27
2022-10-12T04:58:42.851Z,64.50
2022-10-12T05:01:15.641Z,64.52
2022-10-12T05:03:48.425Z,64.33
2022-10-12T05:06:21.358Z,64.43
2022-10-12T05:08:55.504Z,64.31
2022-10-12T05:11:28.239Z,64.66
2022-10-12T05:14:01.052Z,64.45
2022-10-12T05:16:33.804Z,64.79
2022-10-12T05:19:06.629Z,64.54
2022-10-12T05:21:40.463Z,64.50
2022-10-12T05:24:14.774Z,64.58
2022-10-12T05:26:47.558Z,64.67
2022-10-12T05:29:20.362Z,64.72
2022-10-12T05:31:53.400Z,64.77
2022-10-12T05:34:26.188Z,64.55
2022-10-12T05:36:59.485Z,64.38
2022-10-12T05:39:33.967Z,64.83
2022-10-12T05:42:07.112Z,64.46
2022-10-12T05:44:39.755Z,64.12
2022-10-12T05:47:12.433Z,64.53
2022-10-12T05:49:45.570Z,64.74
2022-10-12T05:52:18.225Z,64.27
2022-10-12T05:54:52.605Z,64.66
2022-10-12T05:57:25.438Z,64.28
2022-10-12T05:59:58.232Z,64.63
2022-10-12T06:02:30.892Z,64.20
2022-10-12T06:05:03.740Z,64.71
2022-10-12T06:07:36.398Z,64.02
2022-10-12T06:10:12.083Z,64.74
2022-10-12T06:12:45.273Z,64.42
2022-10-12T06:15:17.999Z,64.40
2022-10-12T06:17:50.663Z,64.19
2022-10-12T06:20:23.390Z,64.43
2022-10-12T06:22:56.063Z,64.43
2022-10-12T06:25:30.102Z,64.32
2022-10-12T06:28:02.807Z,64.39
2022-10-12T06:30:35.573Z,64.10
2022-10-12T06:33:08.354Z,64.56
2022-10-12T06:35:41.137Z,64.17
2022-10-12T06:38:13.884Z,64.45
2022-10-12T06:40:48.006Z,64.19
2022-10-12T06:43:22.630Z,64.56
2022-10-12T06:45:55.237Z,64.46
2022-10-12T06:48:27.878Z,64.38
2022-10-12T06:51:00.694Z,64.26
2022-10-12T06:53:34.971Z,64.50
2022-10-12T06:56:10.765Z,64.16
2022-10-12T06:58:43.444Z,64.08
2022-10-12T07:01:16.814Z,64.18
2022-10-12T07:03:49.520Z,63.97
2022-10-12T07:06:22.171Z,64.24
2022-10-12T07:08:55.529Z,64.54
2022-10-12T07:11:30.188Z,64.31
2022-10-12T07:14:03.010Z,64.33
2022-10-12T07:16:35.976Z,64.18
2022-10-12T07:19:08.949Z,64.05
2022-10-12T07:21:42.020Z,64.18
2022-10-12T07:24:14.781Z,64.78
2022-10-12T07:26:50.573Z,64.65
2022-10-12T07:29:23.332Z,64.37
2022-10-12T07:31:56.305Z,64.64
2022-10-12T07:34:29.830Z,64.21
2022-10-12T07:37:02.918Z,64.54
2022-10-12T07:39:35.364Z,64.56
2022-10-12T07:42:09.643Z,64.28
2022-10-12T07:44:42.338Z,64.53
2022-10-12T07:47:16.383Z,64.55
2022-10-12T07:49:49.130Z,64.41
2022-10-12T07:52:21.833Z,64.28
2022-10-12T07:54:54.720Z,64.54
2022-10-12T07:57:28.751Z,64.27
2022-10-12T08:00:01.842Z,64.95
2022-10-12T08:02:44.380Z,64.72
2022-10-12T08:05:17.799Z,64.71
2022-10-12T08:07:50.881Z,64.81
2022-10-12T08:10:23.781Z,65.32
2022-10-12T08:12:58.105Z,64.79
2022-10-12T08:15:31.072Z,65.91
2022-10-12T08:18:03.816Z,64.13
2022-10-12T08:20:36.489Z,64.42
2022-10-12T08:23:09.195Z,64.80
2022-10-12T08:25:41.897Z,63.59
2022-10-12T08:28:16.041Z,63.45
2022-10-12T08:30:49.209Z,63.52
2022-10-12T08:33:22.026Z,62.58
2022-10-12T08:35:54.790Z,64.15
2022-10-12T08:38:27.530Z,62.93
2022-10-12T08:41:07.655Z,64.13
2022-10-12T08:43:52.109Z,63.58
2022-10-12T08:46:26.249Z,63.90
2022-10-12T08:49:05.136Z,64.13
2022-10-12T08:51:46.929Z,64.00
2022-10-12T08:54:23.357Z,63.28
2022-10-12T08:56:57.263Z,64.65
2022-10-12T08:59:34.753Z,64.25
2022-10-12T09:02:26.735Z,65.82
2022-10-12T09:05:02.411Z,64.00
2022-10-12T09:07:39.420Z,65.01
2022-10-12T09:10:27.778Z,64.81
2022-10-12T09:13:10.250Z,65.00
2022-10-12T09:15:50.476Z,65.87
2022-10-12T09:18:31.552Z,66.09
2022-10-12T09:21:07.208Z,65.18
2022-10-12T09:23:42.146Z,64.86
2022-10-12T09:26:17.477Z,65.43
2022-10-12T09:28:53.531Z,64.62
2022-10-12T09:31:39.849Z,64.78
2022-10-12T09:34:16.780Z,65.11
2022-10-12T09:36:51.918Z,64.82
2022-10-12T09:39:30.660Z,65.10
2022-10-12T09:42:03.746Z,63.35
2022-10-12T09:44:40.279Z,64.32
2022-10-12T09:47:28.194Z,64.45
2022-10-12T09:50:02.387Z,65.29
2022-10-12T09:52:43.872Z,64.41
2022-10-12T09:58:02.609Z,66.21
2022-10-12T10:00:36.641Z,65.31
2022-10-12T10:03:30.640Z,64.96
2022-10-12T10:06:06.080Z,65.73
2022-10-12T10:08:44.261Z,64.50
2022-10-12T10:11:21.510Z,64.17
2022-10-12T10:13:56.134Z,64.67
2022-10-12T10:16:31.629Z,64.51
2022-10-12T10:19:05.700Z,64.47
2022-10-12T10:21:40.655Z,66.11
2022-10-12T10:24:26.503Z,65.82
2022-10-12T10:27:00.884Z,66.12
2022-10-12T10:29:40.114Z,64.20
2022-10-12T10:32:26.817Z,65.49
2022-10-12T10:35:19.200Z,65.25
2022-10-12T10:37:55.938Z,66.56
2022-10-12T10:40:30.093Z,64.00
2022-10-12T10:43:06.464Z,64.61
2022-10-12T10:48:25.632Z,64.18
2022-10-12T10:51:02.844Z,63.81
2022-10-12T10:53:46.720Z,64.58
2022-10-12T10:56:24.890Z,65.19
2022-10-12T10:59:00.900Z,64.21
2022-10-12T11:01:39.423Z,65.16
2022-10-12T11:04:17.525Z,63.19
2022-10-12T11:06:57.388Z,65.08
2022-10-12T11:09:37.832Z,64.55
2022-10-12T11:12:15.433Z,63.34
2022-10-12T11:14:51.824Z,63.53
2022-10-12T11:17:30.462Z,64.48
2022-10-12T11:20:19.926Z,64.28
2022-10-12T11:22:58.969Z,63.64
2022-10-12T11:25:38.444Z,63.79
2022-10-12T11:28:17.433Z,63.34
2022-10-12T11:30:51.943Z,64.06
2022-10-12T11:33:27.892Z,62.95
2022-10-12T11:36:00.904Z,63.94
2022-10-12T11:38:38.708Z,63.60
2022-10-12T11:41:34.934Z,63.03
2022-10-12T11:44:16.307Z,62.73
2022-10-12T11:46:55.887Z,60.12
2022-10-12T11:49:32.461Z,60.60
2022-10-12T11:52:11.400Z,63.10
2022-10-12T11:54:54.038Z,62.68
2022-10-12T11:57:30.626Z,61.44
2022-10-12T12:00:06.966Z,58.55
2022-10-12T12:02:51.131Z,62.44
2022-10-12T12:05:24.175Z,62.79
2022-10-12T12:07:57.621Z,62.01
2022-10-12T12:11:19.339Z,63.14
2022-10-12T12:13:52.025Z,61.54
2022-10-12T12:16:34.836Z,61.02
2022-10-12T12:19:15.455Z,59.85
2022-10-12T12:22:26.496Z,61.13
2022-10-12T12:25:17.651Z,64.30
2022-10-12T12:27:53.951Z,64.15
2022-10-12T12:30:38.525Z,64.30
2022-10-12T12:33:30.894Z,63.86
2022-10-12T12:36:08.506Z,64.27
2022-10-12T12:38:47.387Z,63.27
2022-10-12T12:41:21.730Z,61.81
2022-10-12T12:44:01.111Z,62.74
2022-10-12T12:50:35.556Z,63.92
2022-10-12T12:53:17.892Z,62.46
2022-10-12T12:56:07.391Z,64.57
2022-10-12T12:59:03.358Z,62.51
2022-10-12T13:01:50.035Z,63.99
2022-10-12T13:04:38.279Z,63.17
2022-10-12T13:07:34.595Z,63.53
2022-10-12T13:10:20.134Z,63.63
2022-10-12T13:13:20.741Z,63.91
2022-10-12T13:16:11.817Z,62.59
2022-10-12T13:18:56.858Z,63.38
2022-10-12T13:21:32.558Z,63.22
2022-10-12T13:24:22.885Z,64.57
2022-10-12T13:26:59.221Z,62.75
2022-10-12T13:29:40.053Z,63.56
2022-10-12T13:32:23.625Z,61.88
2022-10-12T13:35:03.358Z,62.29
2022-10-12T13:37:36.560Z,62.36
2022-10-12T13:40:31.391Z,60.51
2022-10-12T13:43:30.819Z,61.96
2022-10-12T13:46:04.151Z,63.56
2022-10-12T13:51:32.367Z,62.70
2022-10-12T13:54:15.657Z,61.11
2022-10-12T13:56:50.070Z,58.33
2022-10-12T13:59:25.873Z,58.63
2022-10-12T14:02:02.195Z,59.32
2022-10-12T14:04:35.972Z,60.23
2022-10-12T14:07:20.274Z,59.85
2022-10-12T14:09:56.340Z,58.10
2022-10-12T14:12:32.351Z,59.52
2022-10-12T14:15:07.466Z,60.08
2022-10-12T14:17:46.138Z,61.74
2022-10-12T14:20:28.545Z,59.64
2022-10-12T14:23:04.391Z,59.70
2022-10-12T14:25:37.684Z,59.11
2022-10-12T14:28:28.317Z,58.73
2022-10-12T14:31:01.068Z,59.15
2022-10-12T14:33:33.823Z,59.17
2022-10-12T14:36:14.575Z,59.62
2022-10-12T14:38:49.833Z,59.53
2022-10-12T14:41:39.650Z,58.31
2022-10-12T14:44:15.932Z,59.53
2022-10-12T14:46:53.468Z,59.58
2022-10-12T14:49:27.868Z,59.38
2022-10-12T14:52:01.426Z,59.47
2022-10-12T14:54:35.714Z,59.57
2022-10-12T14:57:14.125Z,59.57
2022-10-12T14:59:49.181Z,59.39
2022-10-12T15:02:25.447Z,58.51
2022-10-12T15:04:58.706Z,59.31
2022-10-12T15:07:33.493Z,59.69
2022-10-12T15:10:08.949Z,59.68
2022-10-12T15:12:42.217Z,59.50
2022-10-12T15:15:29.018Z,59.34
2022-10-12T15:18:02.679Z,60.19
2022-10-12T15:20:36.316Z,60.04
2022-10-12T15:23:09.023Z,60.28
2022-10-12T15:25:48.817Z,59.87
2022-10-12T15:28:23.098Z,60.07
2022-10-12T15:33:50.122Z,60.55
2022-10-12T15:36:23.092Z,60.31
2022-10-12T15:38:56.139Z,60.37
2022-10-12T15:41:30.210Z,60.66
2022-10-12T15:44:03.421Z,60.57
2022-10-12T15:46:36.289Z,60.50
2022-10-12T15:49:09.807Z,60.58
2022-10-12T15:51:47.706Z,60.51
2022-10-12T15:54:20.609Z,60.68
2022-10-12T15:56:55.791Z,60.73
2022-10-12T15:59:28.972Z,60.79
2022-10-12T16:02:02.882Z,60.57
2022-10-12T16:04:35.665Z,60.47
2022-10-12T16:07:08.568Z,60.54
2022-10-12T16:09:41.247Z,61.43
2022-10-12T16:12:15.952Z,61.43
2022-10-12T16:14:48.956Z,61.20
2022-10-12T16:17:21.801Z,61.28
2022-10-12T16:19:54.769Z,61.47
2022-10-12T16:22:28.007Z,61.33
2022-10-12T16:25:00.746Z,61.59
2022-10-12T16:27:35.122Z,61.42
2022-10-12T16:30:09.804Z,61.48
2022-10-12T16:32:42.660Z,61.43
2022-10-12T16:35:15.811Z,61.76
2022-10-12T16:37:48.580Z,61.30
2022-10-12T16:40:21.442Z,61.75
2022-10-12T16:42:55.889Z,61.15
2022-10-12T16:45:28.707Z,61.77
2022-10-12T16:48:02.059Z,61.53
2022-10-12T16:50:39.892Z,60.92
2022-10-12T16:53:12.743Z,60.98
2022-10-12T16:55:45.550Z,60.64
2022-10-12T16:58:19.829Z,59.61
2022-10-12T17:00:52.751Z,59.98
2022-10-12T17:03:25.956Z,59.98
2022-10-12T17:06:00.305Z,59.59
2022-10-12T17:08:33.998Z,59.55
2022-10-12T17:11:08.367Z,59.22
2022-10-12T17:13:46.695Z,59.58
2022-10-12T17:16:39.101Z,59.25
2022-10-12T17:19:12.010Z,59.53
2022-10-12T17:21:46.377Z,59.55
2022-10-12T17:24:21.095Z,59.55
2022-10-12T17:26:54.477Z,59.99
2022-10-12T17:29:30.966Z,60.01
2022-10-12T17:32:04.580Z,59.94
2022-10-12T17:34:42.385Z,59.88
2022-10-12T17:37:17.987Z,60.23
2022-10-12T17:39:50.924Z,60.11
2022-10-12T17:42:24.801Z,60.22
2022-10-12T17:44:59.215Z,60.47
2022-10-12T17:47:32.074Z,60.51
2022-10-12T17:50:05.419Z,60.76
2022-10-12T17:52:41.000Z,60.71
2022-10-12T17:55:36.138Z,61.01
2022-10-12T17:58:06.545Z,61.57
2022-10-12T18:00:40.717Z,61.25
2022-10-12T18:03:13.461Z,62.93
2022-10-12T18:05:46.131Z,62.53
2022-10-12T18:08:18.929Z,62.26
2022-10-12T18:10:52.128Z,65.07
2022-10-12T18:13:25.050Z,66.33
2022-10-12T18:16:00.164Z,62.21
2022-10-12T18:18:33.285Z,66.24
2022-10-12T18:21:07.444Z,67.07
2022-10-12T18:23:40.561Z,63.21
2022-10-12T18:26:15.238Z,63.65
2022-10-12T18:28:48.461Z,63.70
2022-10-12T18:31:24.617Z,63.38
2022-10-12T18:34:00.838Z,64.81
2022-10-12T18:36:33.808Z,67.26
2022-10-12T18:39:06.570Z,63.75
2022-10-12T18:41:39.480Z,65.31
2022-10-12T18:44:14.928Z,64.51
2022-10-12T18:46:49.320Z,66.43
2022-10-12T18:49:22.479Z,65.09
2022-10-12T18:51:55.127Z,65.18
2022-10-12T18:54:27.850Z,66.75
2022-10-12T18:57:00.665Z,65.46
2022-10-12T18:59:33.516Z,65.07
2022-10-12T19:02:08.522Z,66.42
2022-10-12T19:04:43.940Z,66.04
2022-10-12T19:07:18.040Z,66.41
2022-10-12T19:09:50.949Z,65.95
2022-10-12T19:12:23.704Z,67.33
2022-10-12T19:14:56.504Z,65.15
2022-10-12T19:17:31.998Z,67.60
2022-10-12T19:20:05.451Z,68.18
2022-10-12T19:22:38.212Z,67.44
2022-10-12T19:25:11.048Z,64.39
2022-10-12T19:27:43.739Z,66.63
2022-10-12T19:30:16.860Z,66.48
2022-10-12T19:32:50.801Z,65.29
2022-10-12T19:35:25.047Z,67.09
2022-10-12T19:37:57.782Z,65.18
2022-10-12T19:40:30.637Z,65.49
2022-10-12T19:43:03.286Z,65.95
2022-10-12T19:45:40.258Z,65.44
2022-10-12T19:48:14.237Z,68.08
2022-10-12T19:50:47.035Z,66.14
2022-10-12T19:53:19.919Z,65.36
2022-10-12T19:55:52.877Z,64.93
2022-10-12T19:58:25.656Z,64.71
2022-10-12T20:01:02.256Z,64.69
2022-10-12T20:03:36.799Z,64.65
2022-10-12T20:06:10.086Z,64.54
2022-10-12T20:08:44.894Z,64.42
2022-10-12T20:11:22.486Z,64.42
2022-10-12T20:13:57.454Z,64.47
2022-10-12T20:16:34.877Z,64.49
2022-10-12T20:19:09.637Z,64.58
2022-10-12T20:21:42.402Z,64.49
2022-10-12T20:24:15.172Z,64.48
2022-10-12T20:26:47.933Z,64.28
2022-10-12T20:29:21.523Z,64.13
2022-10-12T20:31:54.338Z,64.47
2022-10-12T20:34:28.435Z,64.15
2022-10-12T20:37:01.286Z,64.30
2022-10-12T20:39:34.721Z,64.48
2022-10-12T20:42:07.824Z,64.30
2022-10-12T20:44:40.625Z,64.19
2022-10-12T20:47:13.940Z,64.56
2022-10-12T20:49:48.508Z,64.35
2022-10-12T20:52:21.749Z,64.49
2022-10-12T20:54:54.753Z,64.18
2022-10-12T20:57:27.638Z,64.40
2022-10-12T21:00:00.457Z,64.76
2022-10-12T21:02:34.110Z,64.37
2022-10-12T21:05:10.218Z,64.23
2022-10-12T21:07:43.034Z,64.25
2022-10-12T21:10:16.127Z,64.64
2022-10-12T21:12:48.941Z,64.36
2022-10-12T21:15:21.739Z,64.82
2022-10-12T21:17:54.437Z,64.51
2022-10-12T21:20:28.682Z,64.72
2022-10-12T21:23:01.712Z,64.63
2022-10-12T21:25:34.950Z,64.76
2022-10-12T21:28:08.134Z,64.69
2022-10-12T21:30:40.926Z,64.47
2022-10-12T21:33:13.785Z,64.54
2022-10-12T21:35:48.146Z,64.52
2022-10-12T21:38:21.002Z,64.34
2022-10-12T21:40:53.795Z,64.67
2022-10-12T21:43:26.612Z,64.48
2022-10-12T21:46:02.830Z,64.62
2022-10-12T21:48:36.348Z,64.13
2022-10-12T21:51:10.645Z,64.38
2022-10-12T21:53:43.723Z,65.38
2022-10-12T21:56:17.500Z,64.73
2022-10-12T21:58:50.346Z,65.10
2022-10-12T22:01:24.977Z,64.61
2022-10-12T22:03:59.356Z,64.75
2022-10-12T22:06:33.756Z,64.97
2022-10-12T22:09:10.159Z,64.67
2022-10-12T22:11:43.924Z,64.85
2022-10-12T22:14:19.423Z,64.45
2022-10-12T22:16:52.241Z,65.08
2022-10-12T22:19:25.030Z,64.86
2022-10-12T22:21:59.204Z,64.95
2022-10-12T22:24:34.134Z,64.84
2022-10-12T22:27:07.125Z,64.59
2022-10-12T22:29:39.854Z,64.65
2022-10-12T22:32:13.326Z,64.72
2022-10-12T22:34:46.125Z,64.70
2022-10-12T22:37:20.159Z,64.52
2022-10-12T22:39:52.853Z,64.48
2022-10-12T22:42:25.548Z,64.71
2022-10-12T22:44:58.394Z,64.25
2022-10-12T22:47:31.105Z,64.43
2022-10-12T22:50:05.155Z,64.54
2022-10-12T22:52:39.285Z,64.46
2022-10-12T22:55:11.992Z,64.44
2022-10-12T22:57:44.726Z,64.63
2022-10-12T23:00:17.938Z,64.60
2022-10-12T23:02:50.702Z,64.46
2022-10-12T23:05:23.401Z,64.58
2022-10-12T23:07:58.803Z,64.47
2022-10-12T23:10:31.692Z,64.64
2022-10-12T23:13:04.679Z,64.50
2022-10-12T23:15:37.481Z,64.46
2022-10-12T23:18:10.202Z,64.72
2022-10-12T23:20:44.012Z,64.58
2022-10-12T23:23:18.129Z,64.25
2022-10-12T23:25:50.852Z,64.57
2022-10-12T23:28:23.700Z,64.60
2022-10-12T23:30:57.179Z,64.43
2022-10-12T23:33:30.263Z,64.38
2022-10-12T23:36:05.539Z,64.62
2022-10-12T23:38:41.101Z,64.61
2022-10-12T23:41:14.689Z,64.71
2022-10-12T23:43:47.460Z,64.73
2022-10-12T23:46:20.912Z,64.74
2022-10-12T23:48:53.661Z,64.70
2022-10-12T23:51:26.568Z,64.71
2022-10-12T23:54:01.126Z,65.40
2022-10-12T23:56:34.030Z,64.84
2022-10-12T23:59:06.789Z,64.85
